createdAt,value
2022-10-22T00:00:00.450Z,12.23
2022-10-22T00:02:02.222Z,11.32
2022-10-22T00:04:03.767Z,10.48
2022-10-22T00:06:05.459Z,11.50
2022-10-22T00:08:06.937Z,12.13
2022-10-22T00:10:08.935Z,11.48
2022-10-22T00:12:11.543Z,11.15
2022-10-22T00:14:13.129Z,11.02
2022-10-22T00:16:14.677Z,10.68
2022-10-22T00:18:16.227Z,11.25
2022-10-22T00:20:17.753Z,11.18
2022-10-22T00:22:19.216Z,10.90
2022-10-22T00:24:20.848Z,11.27
2022-10-22T00:26:23.098Z,11.35
2022-10-22T00:28:25.023Z,11.52
2022-10-22T00:30:26.487Z,10.88
2022-10-22T00:32:27.937Z,10.63
2022-10-22T00:34:29.447Z,11.23
2022-10-22T00:36:30.890Z,11.90
2022-10-22T00:38:33.005Z,11.95
2022-10-22T00:40:34.631Z,11.75
2022-10-22T00:42:36.193Z,12.07
2022-10-22T00:45:02.797Z,12.38
2022-10-22T00:47:04.457Z,12.63
2022-10-22T00:49:05.983Z,11.73
2022-10-22T00:51:08.380Z,11.65
2022-10-22T00:53:16.733Z,11.90
2022-10-22T00:55:20.212Z,11.93
2022-10-22T00:57:22.716Z,10.98
2022-10-22T00:59:24.257Z,11.48
2022-10-22T01:01:29.486Z,11.45
2022-10-22T01:03:32.208Z,11.25
2022-10-22T01:05:55.081Z,10.88
2022-10-22T01:07:56.973Z,11.02
2022-10-22T01:10:01.581Z,12.23
2022-10-22T01:12:28.340Z,11.93
2022-10-22T01:14:37.455Z,11.52
2022-10-22T01:16:58.368Z,11.90
2022-10-22T01:19:23.317Z,12.07
2022-10-22T01:21:36.368Z,12.30
2022-10-22T01:24:02.275Z,13.75
2022-10-22T01:26:10.499Z,12.75
2022-10-22T01:28:34.750Z,13.00
2022-10-22T01:30:36.955Z,13.38
2022-10-22T01:32:52.274Z,13.52
2022-10-22T01:35:07.729Z,12.63
2022-10-22T01:37:12.750Z,12.10
2022-10-22T01:39:16.022Z,12.60
2022-10-22T01:41:17.606Z,11.65
2022-10-22T01:43:19.406Z,12.95
2022-10-22T01:45:20.996Z,12.50
2022-10-22T01:47:52.232Z,13.43
2022-10-22T01:50:15.204Z,12.75
2022-10-22T01:52:56.198Z,13.65
2022-10-22T01:55:09.958Z,12.50
2022-10-22T01:57:35.235Z,13.18
2022-10-22T01:59:45.562Z,14.07
2022-10-22T02:02:05.369Z,13.82
2022-10-22T02:06:21.915Z,13.48
2022-10-22T02:08:27.892Z,12.77
2022-10-22T02:10:30.353Z,12.82
2022-10-22T02:12:33.865Z,13.77
2022-10-22T02:14:39.307Z,13.52
2022-10-22T02:16:44.665Z,12.35
2022-10-22T02:18:51.315Z,13.23
2022-10-22T02:20:53.574Z,13.27
2022-10-22T02:22:56.358Z,12.52
2022-10-22T02:24:57.822Z,13.73
2022-10-22T02:27:09.432Z,17.27
2022-10-22T02:29:18.759Z,16.42
2022-10-22T02:31:24.758Z,16.13
2022-10-22T02:33:36.555Z,15.68
2022-10-22T02:35:40.816Z,14.52
2022-10-22T02:37:42.993Z,17.00
2022-10-22T02:39:45.614Z,15.68
2022-10-22T02:41:48.109Z,18.73
2022-10-22T02:43:53.426Z,16.52
2022-10-22T02:45:54.939Z,16.20
2022-10-22T02:47:56.621Z,15.10
2022-10-22T02:49:58.204Z,14.45
2022-10-22T02:51:59.843Z,14.68
2022-10-22T02:54:01.344Z,21.33
2022-10-22T02:56:03.128Z,24.33
2022-10-22T02:58:04.605Z,27.33
2022-10-22T03:00:14.220Z,22.10
2022-10-22T03:02:15.825Z,22.58
2022-10-22T03:04:17.298Z,16.55
2022-10-22T03:06:19.120Z,17.63
2022-10-22T03:08:20.635Z,17.33
2022-10-22T03:10:22.071Z,15.65
2022-10-22T03:12:23.540Z,16.10
2022-10-22T03:14:24.969Z,15.73
2022-10-22T03:16:26.424Z,16.20
2022-10-22T03:18:27.987Z,15.13
2022-10-22T03:20:29.571Z,16.60
2022-10-22T03:22:33.681Z,16.80
2022-10-22T03:24:38.278Z,15.68
2022-10-22T03:26:41.505Z,15.48
2022-10-22T03:28:43.488Z,13.43
2022-10-22T03:30:44.955Z,14.10
2022-10-22T03:32:46.423Z,13.52
2022-10-22T03:34:48.111Z,13.45
2022-10-22T03:36:50.073Z,13.55
2022-10-22T03:38:51.608Z,13.77
2022-10-22T03:40:53.406Z,13.50
2022-10-22T03:42:54.976Z,12.90
2022-10-22T03:44:56.498Z,14.23
2022-10-22T03:47:00.256Z,12.70
2022-10-22T03:49:04.143Z,14.32
2022-10-22T03:51:05.829Z,14.05
2022-10-22T03:53:10.682Z,15.07
2022-10-22T03:55:12.230Z,15.18
2022-10-22T03:57:13.739Z,13.75
2022-10-22T03:59:15.529Z,15.00
2022-10-22T04:01:17.237Z,14.80
2022-10-22T04:03:18.711Z,14.65
2022-10-22T04:05:20.190Z,15.35
2022-10-22T04:07:21.814Z,15.10
2022-10-22T04:09:23.768Z,14.30
2022-10-22T04:11:25.235Z,16.02
2022-10-22T04:13:27.065Z,15.80
2022-10-22T04:15:29.130Z,15.77
2022-10-22T04:17:38.405Z,16.25
2022-10-22T04:19:40.040Z,16.90
2022-10-22T04:21:41.686Z,15.38
2022-10-22T04:23:51.084Z,15.98
2022-10-22T04:25:59.117Z,16.13
2022-10-22T04:28:00.566Z,15.73
2022-10-22T04:30:02.971Z,20.27
2022-10-22T04:32:04.748Z,15.77
2022-10-22T04:34:06.261Z,14.90
2022-10-22T04:36:13.084Z,14.77
2022-10-22T04:38:14.827Z,15.85
2022-10-22T04:40:16.439Z,13.38
2022-10-22T04:42:17.912Z,14.05
2022-10-22T04:44:19.421Z,13.30
2022-10-22T04:46:21.222Z,12.82
2022-10-22T04:48:22.691Z,14.63
2022-10-22T04:50:24.329Z,17.20
2022-10-22T04:52:25.845Z,24.40
2022-10-22T04:54:30.518Z,26.60
2022-10-22T04:56:34.561Z,24.27
2022-10-22T04:58:36.115Z,20.48
2022-10-22T05:00:37.638Z,20.10
2022-10-22T05:02:39.201Z,16.48
2022-10-22T05:04:40.741Z,16.63
2022-10-22T05:06:42.919Z,18.15
2022-10-22T05:08:44.546Z,18.25
2022-10-22T05:10:46.083Z,19.80
2022-10-22T05:12:47.585Z,20.70
2022-10-22T05:14:49.062Z,22.13
2022-10-22T05:16:51.368Z,24.05
2022-10-22T05:18:53.415Z,23.05
2022-10-22T05:20:54.953Z,20.55
2022-10-22T05:22:56.406Z,17.23
2022-10-22T05:24:57.880Z,18.27
2022-10-22T05:27:00.197Z,18.02
2022-10-22T05:29:01.678Z,17.40
2022-10-22T05:31:04.744Z,17.08
2022-10-22T05:33:06.260Z,17.13
2022-10-22T05:35:08.003Z,18.08
2022-10-22T05:37:09.498Z,17.05
2022-10-22T05:39:11.051Z,18.08
2022-10-22T05:41:19.321Z,17.38
2022-10-22T05:43:20.818Z,15.52
2022-10-22T05:45:22.265Z,16.13
2022-10-22T05:47:23.825Z,16.90
2022-10-22T05:49:25.271Z,17.65
2022-10-22T05:51:29.067Z,17.90
2022-10-22T05:53:32.205Z,17.30
2022-10-22T05:55:37.382Z,17.83
2022-10-22T05:57:39.985Z,16.17
2022-10-22T05:59:41.519Z,16.95
2022-10-22T06:01:43.157Z,16.10
2022-10-22T06:03:45.408Z,12.77
2022-10-22T06:05:46.895Z,13.80
2022-10-22T06:07:48.572Z,12.95
2022-10-22T06:09:50.398Z,11.98
2022-10-22T06:11:52.237Z,12.38
2022-10-22T06:13:53.730Z,12.32
2022-10-22T06:15:55.333Z,14.65
2022-10-22T06:17:56.818Z,14.07
2022-10-22T06:19:58.280Z,13.50
2022-10-22T06:21:59.808Z,13.00
2022-10-22T06:24:02.361Z,11.35
2022-10-22T06:26:04.675Z,13.23
2022-10-22T06:28:06.161Z,14.30
2022-10-22T06:30:08.361Z,17.85
2022-10-22T06:32:09.857Z,19.90
2022-10-22T06:34:13.395Z,14.43
2022-10-22T06:36:20.241Z,12.75
2022-10-22T06:38:21.884Z,11.07
2022-10-22T06:40:24.398Z,10.70
2022-10-22T06:42:25.860Z,9.95
2022-10-22T06:44:27.538Z,10.27
2022-10-22T06:46:29.102Z,8.98
2022-10-22T06:48:30.918Z,8.95
2022-10-22T06:50:34.986Z,9.48
2022-10-22T06:52:36.449Z,8.40
2022-10-22T06:54:38.019Z,8.10
2022-10-22T06:56:39.589Z,7.95
2022-10-22T06:58:41.217Z,8.18
2022-10-22T07:00:42.712Z,7.80
2022-10-22T07:02:44.335Z,10.77
2022-10-22T07:04:45.967Z,19.20
2022-10-22T07:06:47.487Z,14.20
2022-10-22T07:08:49.075Z,17.08
2022-10-22T07:10:50.590Z,14.77
2022-10-22T07:12:52.035Z,13.13
2022-10-22T07:14:53.509Z,12.32
2022-10-22T07:16:54.998Z,12.82
2022-10-22T07:18:56.482Z,12.68
2022-10-22T07:20:58.207Z,12.98
2022-10-22T07:22:59.768Z,9.68
2022-10-22T07:25:05.243Z,9.85
2022-10-22T07:27:10.977Z,9.50
2022-10-22T07:29:15.473Z,10.30
2022-10-22T07:31:18.080Z,9.48
2022-10-22T07:33:19.781Z,9.77
2022-10-22T07:35:21.312Z,10.20
2022-10-22T07:37:22.875Z,8.55
2022-10-22T07:39:25.918Z,8.70
2022-10-22T07:41:29.558Z,8.57
2022-10-22T07:43:31.084Z,9.82
2022-10-22T07:45:33.644Z,9.68
2022-10-22T07:47:35.728Z,9.45
2022-10-22T07:49:37.226Z,9.52
2022-10-22T07:51:38.812Z,9.80
2022-10-22T07:53:40.397Z,9.43
2022-10-22T07:55:41.887Z,9.20
2022-10-22T07:57:43.356Z,10.05
2022-10-22T07:59:44.878Z,10.35
2022-10-22T08:01:47.041Z,10.55
2022-10-22T08:03:49.097Z,10.50
2022-10-22T08:05:51.758Z,11.45
2022-10-22T08:07:53.212Z,8.98
2022-10-22T08:09:54.800Z,8.68
2022-10-22T08:11:56.697Z,8.75
2022-10-22T08:13:58.169Z,8.55
2022-10-22T08:16:00.523Z,8.05
2022-10-22T08:18:02.202Z,7.95
2022-10-22T08:20:04.501Z,7.95
2022-10-22T08:22:06.432Z,8.02
2022-10-22T08:26:14.457Z,8.52
2022-10-22T08:28:19.824Z,13.15
2022-10-22T08:30:23.511Z,8.68
2022-10-22T08:34:31.641Z,8.15
2022-10-22T08:36:33.591Z,7.70
2022-10-22T08:38:35.532Z,7.20
2022-10-22T08:40:40.077Z,8.02
2022-10-22T08:43:26.105Z,8.75
2022-10-22T08:45:35.100Z,9.50
2022-10-22T08:48:15.044Z,9.80
2022-10-22T08:52:22.080Z,7.45
2022-10-22T08:54:40.603Z,8.40
2022-10-22T08:56:45.564Z,8.50
2022-10-22T08:58:57.045Z,8.63
2022-10-22T09:01:01.316Z,9.50
2022-10-22T09:03:49.000Z,10.52
2022-10-22T09:06:14.804Z,9.80
2022-10-22T09:08:19.548Z,9.15
2022-10-22T09:10:35.457Z,10.20
2022-10-22T09:12:37.853Z,10.07
2022-10-22T09:14:39.356Z,10.32
2022-10-22T09:17:04.996Z,10.23
2022-10-22T09:19:25.860Z,11.02
2022-10-22T09:21:52.252Z,9.13
2022-10-22T09:24:22.217Z,10.27
2022-10-22T09:28:26.768Z,10.23
2022-10-22T09:30:35.421Z,10.73
2022-10-22T09:32:36.865Z,11.02
2022-10-22T09:34:39.123Z,12.13
2022-10-22T09:36:40.581Z,10.18
2022-10-22T09:38:47.365Z,9.90
2022-10-22T09:40:52.252Z,9.70
2022-10-22T09:42:53.788Z,9.80
2022-10-22T09:44:59.362Z,10.57
2022-10-22T09:47:05.561Z,10.93
2022-10-22T09:49:13.260Z,10.95
2022-10-22T09:51:24.316Z,12.05
2022-10-22T09:53:28.764Z,10.82
2022-10-22T09:55:30.792Z,10.48
2022-10-22T09:57:32.693Z,9.98
2022-10-22T09:59:38.560Z,10.65
2022-10-22T10:01:40.970Z,10.40
2022-10-22T10:03:42.562Z,11.32
2022-10-22T10:05:47.446Z,11.52
2022-10-22T10:07:49.471Z,11.38
2022-10-22T10:09:53.962Z,11.32
2022-10-22T10:12:21.579Z,11.35
2022-10-22T10:14:33.864Z,10.65
2022-10-22T10:16:41.342Z,11.18
2022-10-22T10:19:09.033Z,11.07
2022-10-22T10:21:48.978Z,11.65
2022-10-22T10:24:21.400Z,12.15
2022-10-22T10:26:32.470Z,11.68
2022-10-22T10:28:59.111Z,11.95
2022-10-22T10:31:06.568Z,12.02
2022-10-22T10:33:14.143Z,12.07
2022-10-22T10:35:23.804Z,11.38
2022-10-22T10:37:29.467Z,13.50
2022-10-22T10:39:45.491Z,11.25
2022-10-22T10:42:05.013Z,13.40
2022-10-22T10:44:51.539Z,15.43
2022-10-22T10:47:04.296Z,18.08
2022-10-22T10:49:31.593Z,18.95
2022-10-22T10:51:53.265Z,17.70
2022-10-22T10:54:03.952Z,19.85
2022-10-22T10:56:36.825Z,16.98
2022-10-22T10:58:51.199Z,17.98
2022-10-22T11:01:00.880Z,18.25
2022-10-22T11:03:32.661Z,21.85
2022-10-22T11:05:51.413Z,23.95
2022-10-22T11:08:00.107Z,22.27
2022-10-22T11:10:13.790Z,19.50
2022-10-22T11:12:22.650Z,18.73
2022-10-22T11:14:35.858Z,16.10
2022-10-22T11:16:46.392Z,17.63
2022-10-22T11:18:54.176Z,17.17
2022-10-22T11:21:09.297Z,16.95
2022-10-22T11:23:27.229Z,17.20
2022-10-22T11:25:37.293Z,16.27
2022-10-22T11:28:03.278Z,15.63
2022-10-22T11:30:22.670Z,16.90
2022-10-22T11:32:33.417Z,20.27
2022-10-22T11:34:48.735Z,21.63
2022-10-22T11:36:59.831Z,52.63
2022-10-22T11:39:04.026Z,47.13
2022-10-22T11:41:12.168Z,85.70
2022-10-22T11:43:32.776Z,95.22
2022-10-22T11:45:36.186Z,37.67
2022-10-22T11:48:11.835Z,49.25
2022-10-22T11:50:16.423Z,92.45
2022-10-22T11:52:49.818Z,102.55
2022-10-22T11:55:03.673Z,57.47
2022-10-22T11:57:17.138Z,48.45
2022-10-22T11:59:40.118Z,39.40
2022-10-22T12:01:47.877Z,28.85
2022-10-22T12:04:19.161Z,21.55
2022-10-22T12:06:28.546Z,21.42
2022-10-22T12:08:34.019Z,21.60
2022-10-22T12:10:49.507Z,21.48
2022-10-22T12:13:28.446Z,19.95
2022-10-22T12:15:30.238Z,22.95
2022-10-22T12:17:35.274Z,23.58
2022-10-22T12:19:44.493Z,22.75
2022-10-22T12:22:00.262Z,23.60
2022-10-22T12:24:03.156Z,22.25
2022-10-22T12:26:05.586Z,22.75
2022-10-22T12:28:12.572Z,21.88
2022-10-22T12:30:23.701Z,21.38
2022-10-22T12:32:37.127Z,21.17
2022-10-22T12:36:53.467Z,18.48
2022-10-22T12:38:55.740Z,21.75
2022-10-22T12:40:57.722Z,33.47
2022-10-22T12:43:02.584Z,34.85
2022-10-22T12:45:04.323Z,31.75
2022-10-22T12:47:07.751Z,29.55
2022-10-22T12:49:17.091Z,46.38
2022-10-22T12:51:20.430Z,31.10
2022-10-22T12:53:31.659Z,26.73
2022-10-22T12:55:34.391Z,23.17
2022-10-22T12:57:35.935Z,21.48
2022-10-22T12:59:39.091Z,20.98
2022-10-22T13:01:42.940Z,20.38
2022-10-22T13:03:49.840Z,19.77
2022-10-22T13:05:51.844Z,19.75
2022-10-22T13:08:05.189Z,19.00
2022-10-22T13:10:38.659Z,20.42
2022-10-22T13:12:45.124Z,18.52
2022-10-22T13:14:47.223Z,19.80
2022-10-22T13:17:10.043Z,19.30
2022-10-22T13:19:36.691Z,20.02
2022-10-22T13:21:39.401Z,21.63
2022-10-22T13:23:56.776Z,19.15
2022-10-22T13:26:02.911Z,21.85
2022-10-22T13:28:07.580Z,24.52
2022-10-22T13:30:23.596Z,20.45
2022-10-22T13:32:33.754Z,19.27
2022-10-22T13:34:36.443Z,19.15
2022-10-22T13:36:37.953Z,19.45
2022-10-22T13:38:39.437Z,19.30
2022-10-22T13:40:41.584Z,19.73
2022-10-22T13:42:43.415Z,19.40
2022-10-22T13:44:45.155Z,21.38
2022-10-22T13:46:48.500Z,23.02
2022-10-22T13:48:52.782Z,23.73
2022-10-22T13:50:54.696Z,25.50
2022-10-22T13:52:58.500Z,23.35
2022-10-22T13:55:00.033Z,25.25
2022-10-22T13:57:01.590Z,25.27
2022-10-22T13:59:03.591Z,27.10
2022-10-22T14:01:08.903Z,27.20
2022-10-22T14:03:14.184Z,27.92
2022-10-22T14:05:17.878Z,24.83
2022-10-22T14:07:19.544Z,25.00
2022-10-22T14:09:21.299Z,27.85
2022-10-22T14:11:22.790Z,27.27
2022-10-22T14:13:24.569Z,25.17
2022-10-22T14:15:28.712Z,26.38
2022-10-22T14:17:30.506Z,43.50
2022-10-22T14:19:32.206Z,51.13
2022-10-22T14:21:37.203Z,54.13
2022-10-22T14:23:40.338Z,51.58
2022-10-22T14:25:42.401Z,52.40
2022-10-22T14:27:44.382Z,52.72
2022-10-22T14:29:45.902Z,45.28
2022-10-22T14:31:47.510Z,37.70
2022-10-22T14:33:50.110Z,33.10
2022-10-22T14:35:51.771Z,40.75
2022-10-22T14:37:53.994Z,74.38
2022-10-22T14:40:01.389Z,66.80
2022-10-22T14:42:03.395Z,64.75
2022-10-22T14:44:05.494Z,68.70
2022-10-22T14:46:07.423Z,73.80
2022-10-22T14:48:08.960Z,79.38
2022-10-22T14:50:11.343Z,87.57
2022-10-22T14:52:14.870Z,62.33
2022-10-22T14:54:18.400Z,49.70
2022-10-22T14:56:22.514Z,43.33
2022-10-22T14:58:24.290Z,45.05
2022-10-22T15:00:25.833Z,47.83
2022-10-22T15:02:27.464Z,46.22
2022-10-22T15:04:30.568Z,45.38
2022-10-22T15:06:32.053Z,50.15
2022-10-22T15:08:33.895Z,49.20
2022-10-22T15:10:35.604Z,33.88
2022-10-22T15:12:37.146Z,41.95
2022-10-22T15:14:38.724Z,43.08
2022-10-22T15:16:40.248Z,38.45
2022-10-22T15:18:42.044Z,57.63
2022-10-22T15:20:43.519Z,100.93
2022-10-22T15:22:45.414Z,126.00
2022-10-22T15:24:48.588Z,114.80
2022-10-22T15:26:52.558Z,100.10
2022-10-22T15:28:54.719Z,123.90
2022-10-22T15:30:58.750Z,75.22
2022-10-22T15:33:00.265Z,65.28
2022-10-22T15:35:02.297Z,100.55
2022-10-22T15:37:06.675Z,61.75
2022-10-22T15:39:09.854Z,60.45
2022-10-22T15:41:12.762Z,61.55
2022-10-22T15:43:14.722Z,88.18
2022-10-22T15:45:16.419Z,81.55
2022-10-22T15:47:18.085Z,89.88
2022-10-22T15:49:19.576Z,91.93
2022-10-22T15:51:21.222Z,85.88
2022-10-22T15:53:22.830Z,86.90
2022-10-22T15:55:24.402Z,78.55
2022-10-22T15:57:26.090Z,49.45
2022-10-22T15:59:27.737Z,46.22
2022-10-22T16:01:30.063Z,47.40
2022-10-22T16:05:38.116Z,42.92
2022-10-22T16:07:39.925Z,40.13
2022-10-22T16:09:41.749Z,38.15
2022-10-22T16:11:44.478Z,42.58
2022-10-22T16:13:46.141Z,38.28
2022-10-22T16:15:48.215Z,39.78
2022-10-22T16:17:51.802Z,40.35
2022-10-22T16:19:53.652Z,40.72
2022-10-22T16:21:56.391Z,40.67
2022-10-22T16:24:05.931Z,41.45
2022-10-22T16:26:08.714Z,44.92
2022-10-22T16:28:11.912Z,47.13
2022-10-22T16:30:13.747Z,47.83
2022-10-22T16:32:16.546Z,41.85
2022-10-22T16:34:18.158Z,43.60
2022-10-22T16:36:21.019Z,43.78
2022-10-22T16:38:22.654Z,75.13
2022-10-22T16:40:24.298Z,58.78
2022-10-22T16:42:25.884Z,48.00
2022-10-22T16:44:27.567Z,54.80
2022-10-22T16:46:30.262Z,55.70
2022-10-22T16:48:32.725Z,57.97
2022-10-22T16:50:34.283Z,70.10
2022-10-22T16:52:36.012Z,92.20
2022-10-22T16:54:37.552Z,101.43
2022-10-22T16:56:39.130Z,64.25
2022-10-22T16:58:54.731Z,83.47
2022-10-22T17:00:58.660Z,63.03
2022-10-22T17:03:00.495Z,91.00
2022-10-22T17:05:02.194Z,56.90
2022-10-22T17:07:03.851Z,57.53
2022-10-22T17:09:05.646Z,61.30
2022-10-22T17:11:12.231Z,93.03
2022-10-22T17:13:13.797Z,88.10
2022-10-22T17:15:15.575Z,96.50
2022-10-22T17:17:17.123Z,91.65
2022-10-22T17:19:18.748Z,60.78
2022-10-22T17:21:20.930Z,68.78
2022-10-22T17:23:22.635Z,163.98
2022-10-22T17:25:32.583Z,68.38
2022-10-22T17:29:38.852Z,90.32
2022-10-22T17:31:40.957Z,50.65
2022-10-22T17:33:43.248Z,103.78
2022-10-22T17:35:44.718Z,76.38
2022-10-22T17:37:46.195Z,76.13
2022-10-22T17:39:47.675Z,63.20
2022-10-22T17:41:49.292Z,77.90
2022-10-22T17:43:51.165Z,89.47
2022-10-22T17:45:52.913Z,78.63
2022-10-22T17:47:56.702Z,97.22
2022-10-22T17:49:58.254Z,62.70
2022-10-22T17:54:03.561Z,62.58
2022-10-22T17:56:10.142Z,56.20
2022-10-22T17:58:11.584Z,70.25
2022-10-22T18:00:13.811Z,49.38
2022-10-22T18:02:17.634Z,102.55
2022-10-22T18:04:20.023Z,57.00
2022-10-22T18:06:22.195Z,39.80
2022-10-22T18:08:25.548Z,56.72
2022-10-22T18:10:27.084Z,57.38
2022-10-22T18:12:28.606Z,53.05
2022-10-22T18:14:30.064Z,77.97
2022-10-22T18:16:31.733Z,98.72
2022-10-22T18:18:34.646Z,54.97
2022-10-22T18:20:36.179Z,68.10
2022-10-22T18:22:37.708Z,68.75
2022-10-22T18:24:39.212Z,86.03
2022-10-22T18:26:41.028Z,70.88
2022-10-22T18:28:42.556Z,59.65
2022-10-22T18:30:45.287Z,66.55
2022-10-22T18:32:46.839Z,84.00
2022-10-22T18:34:48.341Z,82.75
2022-10-22T18:36:49.933Z,57.63
2022-10-22T18:38:52.536Z,62.33
2022-10-22T18:40:54.191Z,53.90
2022-10-22T18:42:56.755Z,81.78
2022-10-22T18:44:58.290Z,87.63
2022-10-22T18:46:59.985Z,71.80
2022-10-22T18:49:01.798Z,79.75
2022-10-22T18:51:08.562Z,76.82
2022-10-22T18:53:12.391Z,104.30
2022-10-22T18:55:13.841Z,87.38
2022-10-22T18:57:15.331Z,82.55
2022-10-22T18:59:19.793Z,61.13
2022-10-22T19:01:29.337Z,103.40
2022-10-22T19:03:30.921Z,67.85
2022-10-22T19:05:32.464Z,61.05
2022-10-22T19:07:36.369Z,55.60
2022-10-22T19:09:38.921Z,58.58
2022-10-22T19:11:40.441Z,76.97
2022-10-22T19:13:42.710Z,55.00
2022-10-22T19:15:44.190Z,45.95
2022-10-22T19:17:45.799Z,71.85
2022-10-22T19:19:47.305Z,43.63
2022-10-22T19:21:49.323Z,45.03
2022-10-22T19:23:51.632Z,42.50
2022-10-22T19:26:07.596Z,43.72
2022-10-22T19:28:09.070Z,44.58
2022-10-22T19:30:11.072Z,61.88
2022-10-22T19:32:13.030Z,44.92
2022-10-22T19:34:14.497Z,48.42
2022-10-22T19:36:18.430Z,45.63
2022-10-22T19:38:19.913Z,49.80
2022-10-22T19:42:30.626Z,58.35
2022-10-22T19:44:32.221Z,106.68
2022-10-22T19:46:33.770Z,75.45
2022-10-22T19:48:35.993Z,58.03
2022-10-22T19:50:37.719Z,88.45
2022-10-22T19:52:39.466Z,66.20
2022-10-22T19:54:44.589Z,156.02
2022-10-22T19:56:47.034Z,80.88
2022-10-22T19:58:53.444Z,59.58
2022-10-22T20:00:55.027Z,114.55
2022-10-22T20:02:56.622Z,155.13
2022-10-22T20:04:58.175Z,57.45
2022-10-22T20:06:59.915Z,187.60
2022-10-22T20:09:01.506Z,102.45
2022-10-22T20:11:04.207Z,64.45
2022-10-22T20:13:05.802Z,53.15
2022-10-22T20:15:08.036Z,69.30
2022-10-22T20:17:09.548Z,59.88
2022-10-22T20:19:15.948Z,57.55
2022-10-22T20:21:19.294Z,65.80
2022-10-22T20:23:21.052Z,65.07
2022-10-22T20:25:22.514Z,56.45
2022-10-22T20:27:23.996Z,57.33
2022-10-22T20:29:25.536Z,58.97
2022-10-22T20:31:29.357Z,60.22
2022-10-22T20:33:30.843Z,57.15
2022-10-22T20:35:32.411Z,66.63
2022-10-22T20:37:34.499Z,97.38
2022-10-22T20:39:36.159Z,53.72
2022-10-22T20:41:40.260Z,60.05
2022-10-22T20:43:44.796Z,54.22
2022-10-22T20:45:46.300Z,91.85
2022-10-22T20:47:58.364Z,56.40
2022-10-22T20:50:04.029Z,51.83
2022-10-22T20:52:05.587Z,64.28
2022-10-22T20:54:08.589Z,61.42
2022-10-22T20:56:11.041Z,51.22
2022-10-22T20:58:12.478Z,49.90
2022-10-22T21:00:14.478Z,57.33
2022-10-22T21:02:16.064Z,49.90
2022-10-22T21:04:19.705Z,42.90
2022-10-22T21:06:23.313Z,65.93
2022-10-22T21:08:24.946Z,55.20
2022-10-22T21:10:31.614Z,62.08
2022-10-22T21:12:34.129Z,39.08
2022-10-22T21:14:35.643Z,39.50
2022-10-22T21:16:44.098Z,39.22
2022-10-22T21:18:46.641Z,37.45
2022-10-22T21:20:48.211Z,38.50
2022-10-22T21:22:49.725Z,45.58
2022-10-22T21:24:51.164Z,33.78
2022-10-22T21:26:53.280Z,35.70
2022-10-22T21:28:54.994Z,37.83
2022-10-22T21:30:56.446Z,38.35
2022-10-22T21:32:58.110Z,33.90
2022-10-22T21:34:59.655Z,33.08
2022-10-22T21:37:01.101Z,33.33
2022-10-22T21:39:02.966Z,31.50
2022-10-22T21:41:09.644Z,39.67
2022-10-22T21:43:11.204Z,42.20
2022-10-22T21:45:14.239Z,46.60
2022-10-22T21:47:17.234Z,76.57
2022-10-22T21:49:18.960Z,78.35
2022-10-22T21:51:21.065Z,42.42
2022-10-22T21:53:22.564Z,56.22
2022-10-22T21:55:24.067Z,49.28
2022-10-22T21:57:25.557Z,48.70
2022-10-22T21:59:32.140Z,35.72
2022-10-22T22:01:34.407Z,40.70
2022-10-22T22:03:36.209Z,35.50
2022-10-22T22:05:38.001Z,50.42
2022-10-22T22:07:40.207Z,60.30
2022-10-22T22:09:41.747Z,59.25
2022-10-22T22:11:43.298Z,45.45
2022-10-22T22:13:45.463Z,46.42
2022-10-22T22:15:46.934Z,41.15
2022-10-22T22:17:48.379Z,39.28
2022-10-22T22:19:49.879Z,45.45
2022-10-22T22:21:52.896Z,46.05
2022-10-22T22:23:54.460Z,36.83
2022-10-22T22:26:02.497Z,41.10
2022-10-22T22:28:04.127Z,40.25
2022-10-22T22:30:06.394Z,47.15
2022-10-22T22:32:07.856Z,43.53
2022-10-22T22:34:15.317Z,41.55
2022-10-22T22:36:16.797Z,43.78
2022-10-22T22:38:18.330Z,87.85
2022-10-22T22:40:19.868Z,57.20
2022-10-22T22:42:21.329Z,41.47
2022-10-22T22:44:22.864Z,43.63
2022-10-22T22:46:24.361Z,46.00
2022-10-22T22:48:25.880Z,42.60
2022-10-22T22:50:27.525Z,42.25
2022-10-22T22:52:29.100Z,43.15
2022-10-22T22:54:30.631Z,41.58
2022-10-22T22:56:34.593Z,40.97
2022-10-22T22:58:37.635Z,41.10
2022-10-22T23:02:40.893Z,41.92
2022-10-22T23:04:42.612Z,40.50
2022-10-22T23:06:44.073Z,42.08
2022-10-22T23:08:49.543Z,39.60
2022-10-22T23:10:51.009Z,40.40
2022-10-22T23:12:52.512Z,39.78
2022-10-22T23:14:53.992Z,41.00
2022-10-22T23:16:55.484Z,44.53
2022-10-22T23:18:57.803Z,43.28
2022-10-22T23:21:02.540Z,43.15
2022-10-22T23:23:06.218Z,42.42
2022-10-22T23:25:08.174Z,42.92
2022-10-22T23:27:10.163Z,42.75
2022-10-22T23:29:14.788Z,39.38
2022-10-22T23:31:18.660Z,40.13
2022-10-22T23:33:20.157Z,39.67
2022-10-22T23:35:21.781Z,38.55
2022-10-22T23:37:23.245Z,37.33
2022-10-22T23:39:28.604Z,36.55
2022-10-22T23:41:30.073Z,38.38
2022-10-22T23:43:36.027Z,37.63
2022-10-22T23:45:37.633Z,38.17
2022-10-22T23:47:39.300Z,37.55
2022-10-22T23:49:40.890Z,38.65
2022-10-22T23:51:42.578Z,38.53
2022-10-22T23:53:45.273Z,38.58
2022-10-22T23:55:46.749Z,37.75
2022-10-22T23:57:48.310Z,38.45
2022-10-22T23:59:49.764Z,40.60
